Time;durP1;ratioP1;P1;durP2;ratioP2;P2;SDS_P1;SDS_P2;PMS_P1;PMS_P2;Temp;Humidity;BMP_temperature;BMP_pressure;BME280_temperature;BME280_humidity;BME280_pressure;Samples;Min_cycle;Max_cycle;Signal;HPM_P1;HPM_P2
2021/08/19 00:00:39;;;;;;;;;;;;;;;;;;5115758;28;20031;-69
2021/08/19 00:03:24;;;;;;;2.10;1.20;;;;;;;;;;5099970;28;19915;-71
2021/08/19 00:06:09;;;;;;;2.30;1.40;;;;;;;;;;5115295;28;20035;-71
2021/08/19 00:08:55;;;;;;;1.58;1.02;;;;;;;;;;5106527;28;20039;-69
2021/08/19 00:11:40;;;;;;;3.45;1.17;;;;;;;;;;5115133;28;20043;-71
2021/08/19 00:14:26;;;;;;;3.28;1.17;;;;;;;;;;5114947;28;20043;-70
2021/08/19 00:17:11;;;;;;;3.22;1.48;;;;;;;;;;5115363;28;20036;-70
2021/08/19 00:19:55;;;;;;;1.27;0.95;;;;;;;;;;5099541;28;20032;-69
2021/08/19 00:22:39;;;;;;;4.63;1.48;;;;;;;;;;5114948;28;20032;-71
2021/08/19 00:25:25;;;;;;;6.28;1.20;;;;;;;;;;5114750;28;20044;-69
2021/08/19 00:28:09;;;;;;;2.53;1.25;;;;;;;;;;5114938;28;20032;-69
2021/08/19 00:30:53;;;;;;;;;;;;;;;;;;5115140;28;20036;-72
2021/08/19 00:33:37;;;;;;;2.65;1.33;;;;;;;;;;5114698;28;19919;-71
2021/08/19 00:36:22;;;;;;;2.28;1.33;;;;;;;;;;5114653;28;20039;-71
2021/08/19 00:39:07;;;;;;;4.03;1.00;;;;;;;;;;5106073;28;20043;-71
2021/08/19 00:41:51;;;;;;;;;;;;;;;;;;5114924;28;20035;-71
2021/08/19 00:44:38;;;;;;;1.77;1.05;;;;;;;;;;5113898;28;19915;-69
2021/08/19 00:47:24;;;;;;;3.78;1.27;;;;;;;;;;5114477;28;20044;-70
2021/08/19 00:50:09;;;;;;;4.68;1.38;;;;;;;;;;5114443;28;20036;-70
2021/08/19 00:52:53;;;;;;;2.78;1.20;;;;;;;;;;5114226;28;20044;-70
2021/08/19 00:55:38;;;;;;;3.28;1.17;;;;;;;;;;5114270;28;20035;-71
2021/08/19 00:58:23;;;;;;;1.90;1.20;;;;;;;;;;5114212;28;20027;-71
2021/08/19 01:01:08;;;;;;;;;;;;;;;;;;5114588;28;20036;-71
2021/08/19 01:03:53;;;;;;;2.00;1.08;;;;;;;;;;5114294;28;19915;-71
2021/08/19 01:06:39;;;;;;;2.38;1.20;;;;;;;;;;5114084;28;20035;-68
2021/08/19 01:09:24;;;;;;;2.65;1.02;;;;;;;;;;5114399;28;20384;-69
2021/08/19 01:12:12;;;;;;;2.30;1.10;;;;;;;;;;5102601;28;20491;-71
2021/08/19 01:14:56;;;;;;;11.60;1.60;;;;;;;;;;5098489;28;20036;-71
2021/08/19 01:17:41;;;;;;;3.30;1.52;;;;;;;;;;5113828;28;20494;-70
2021/08/19 01:20:35;;;;;;;1.73;1.33;;;;;;;;;;5113919;28;20036;-71
2021/08/19 01:23:19;;;;;;;3.15;1.30;;;;;;;;;;5098309;28;20032;-71
2021/08/19 01:26:06;;;;;;;2.03;1.20;;;;;;;;;;5098346;28;20051;-70
2021/08/19 01:28:55;;;;;;;2.13;1.17;;;;;;;;;;5113561;28;20035;-70
2021/08/19 01:31:39;;;;;;;1.83;0.98;;;;;;;;;;5103710;28;20503;-70
2021/08/19 01:34:23;;;;;;;4.65;1.20;;;;;;;;;;5104903;28;20039;-70
2021/08/19 01:37:08;;;;;;;5.00;1.38;;;;;;;;;;5113464;28;20040;-68
2021/08/19 01:39:53;;;;;;;4.63;1.20;;;;;;;;;;5113758;28;20032;-69
2021/08/19 01:42:37;;;;;;;2.35;1.30;;;;;;;;;;5113275;28;20036;-69
2021/08/19 01:45:22;;;;;;;;;;;;;;;;;;5113826;28;20486;-69
2021/08/19 01:48:07;;;;;;;2.47;1.40;;;;;;;;;;5104713;28;19914;-69
2021/08/19 01:50:52;;;;;;;2.60;1.13;;;;;;;;;;5113337;28;20032;-69
2021/08/19 01:53:37;;;;;;;2.65;1.27;;;;;;;;;;5113012;28;20040;-71
2021/08/19 01:56:25;;;;;;;3.72;1.20;;;;;;;;;;5112286;28;20036;-70
2021/08/19 01:59:10;;;;;;;2.95;1.13;;;;;;;;;;5104411;28;20035;-71
2021/08/19 02:01:54;;;;;;;4.57;1.80;;;;;;;;;;5112993;28;20032;-71
2021/08/19 02:04:43;;;;;;;6.20;1.20;;;;;;;;;;5112939;28;20043;-71
2021/08/19 02:07:27;;;;;;;2.42;1.35;;;;;;;;;;5113022;28;20043;-70
2021/08/19 02:10:11;;;;;;;3.40;1.23;;;;;;;;;;5112854;28;20032;-69
2021/08/19 02:12:55;;;;;;;1.98;1.23;;;;;;;;;;5099323;28;20036;-70
2021/08/19 02:15:40;;;;;;;2.33;1.48;;;;;;;;;;5112751;28;20036;-70
2021/08/19 02:18:24;;;;;;;2.42;1.10;;;;;;;;;;5112811;28;20032;-71
2021/08/19 02:21:09;;;;;;;2.22;1.13;;;;;;;;;;5112785;28;20035;-70
2021/08/19 02:23:54;;;;;;;2.35;1.30;;;;;;;;;;5112575;28;20043;-69
2021/08/19 02:26:38;;;;;;;2.58;1.40;;;;;;;;;;5112523;28;20047;-69
2021/08/19 02:29:23;;;;;;;2.58;1.60;;;;;;;;;;5112527;28;20487;-69
2021/08/19 02:32:07;;;;;;;6.50;2.65;;;;;;;;;;5100610;28;20035;-70
2021/08/19 02:34:52;;;;;;;4.38;1.52;;;;;;;;;;5111574;28;20043;-70
2021/08/19 02:37:37;;;;;;;5.93;2.13;;;;;;;;;;5112562;28;20032;-70
2021/08/19 02:40:22;;;;;;;3.67;1.98;;;;;;;;;;5112669;28;20028;-69
2021/08/19 02:43:08;;;;;;;3.40;1.50;;;;;;;;;;5098451;28;20036;-70
2021/08/19 02:45:52;;;;;;;5.30;1.98;;;;;;;;;;5103819;28;20040;-69
2021/08/19 02:48:36;;;;;;;3.60;1.92;;;;;;;;;;5103835;28;20044;-70
2021/08/19 02:51:21;;;;;;;4.28;2.25;;;;;;;;;;5103258;28;20035;-70
2021/08/19 02:54:05;;;;;;;4.20;1.88;;;;;;;;;;5112309;28;20040;-70
2021/08/19 02:56:50;;;;;;;5.03;2.42;;;;;;;;;;5112489;28;20032;-70
2021/08/19 02:59:34;;;;;;;2.20;1.48;;;;;;;;;;5112335;28;20372;-69
2021/08/19 03:02:18;;;;;;;6.97;1.83;;;;;;;;;;5112120;28;20032;-69
2021/08/19 03:05:03;;;;;;;5.05;1.40;;;;;;;;;;5112311;28;20044;-70
2021/08/19 03:07:47;;;;;;;2.80;1.58;;;;;;;;;;5098009;28;20032;-69
2021/08/19 03:10:32;;;;;;;3.75;2.05;;;;;;;;;;5116378;28;20040;-69
2021/08/19 03:13:16;;;;;;;5.15;1.27;;;;;;;;;;5116201;28;20506;-68
2021/08/19 03:16:00;;;;;;;1.92;1.20;;;;;;;;;;5116250;28;20039;-70
2021/08/19 03:18:44;;;;;;;5.35;1.70;;;;;;;;;;5116289;28;20032;-71
2021/08/19 03:21:29;;;;;;;5.00;1.67;;;;;;;;;;5100645;28;20035;-68
2021/08/19 03:24:14;;;;;;;3.35;1.40;;;;;;;;;;5100774;28;20039;-69
2021/08/19 03:26:58;;;;;;;2.55;1.48;;;;;;;;;;5115893;28;20487;-69
2021/08/19 03:29:43;;;;;;;3.38;1.45;;;;;;;;;;5116077;28;20035;-69
2021/08/19 03:32:28;;;;;;;4.00;1.45;;;;;;;;;;5115778;28;20047;-69
2021/08/19 03:35:12;;;;;;;3.72;1.40;;;;;;;;;;5115941;28;20043;-71
2021/08/19 03:37:56;;;;;;;5.22;1.70;;;;;;;;;;5122680;28;20035;-70
2021/08/19 03:40:41;;;;;;;7.15;1.50;;;;;;;;;;5115913;28;20383;-70
2021/08/19 03:43:25;;;;;;;3.70;1.67;;;;;;;;;;5100355;28;20040;-69
2021/08/19 03:46:10;;;;;;;2.83;1.65;;;;;;;;;;5100320;28;20036;-69
2021/08/19 03:48:54;;;;;;;2.42;1.30;;;;;;;;;;5115606;28;20040;-69
2021/08/19 03:51:38;;;;;;;2.55;1.55;;;;;;;;;;5115583;28;20039;-69
2021/08/19 03:54:22;;;;;;;4.88;1.40;;;;;;;;;;5115365;28;20472;-71
2021/08/19 03:57:07;;;;;;;3.13;1.25;;;;;;;;;;5115553;28;20036;-70
2021/08/19 03:59:52;;;;;;;3.88;1.55;;;;;;;;;;5115428;28;20036;-70
2021/08/19 04:02:36;;;;;;;2.63;1.38;;;;;;;;;;5115341;28;20027;-69
2021/08/19 04:05:20;;;;;;;3.53;1.35;;;;;;;;;;5106710;28;20035;-70
2021/08/19 04:08:05;;;;;;;2.42;1.10;;;;;;;;;;5099839;28;20515;-69
2021/08/19 04:10:49;;;;;;;3.72;1.38;;;;;;;;;;5115205;28;20044;-70
2021/08/19 04:13:34;;;;;;;4.85;1.20;;;;;;;;;;5114916;28;20039;-68
2021/08/19 04:16:18;;;;;;;9.15;1.73;;;;;;;;;;5115069;28;20036;-69
2021/08/19 04:19:02;;;;;;;5.45;1.83;;;;;;;;;;5113922;28;20028;-69
2021/08/19 04:21:47;;;;;;;5.47;1.30;;;;;;;;;;5104791;28;20507;-71
2021/08/19 04:24:31;;;;;;;3.90;1.50;;;;;;;;;;5114895;28;20035;-71
2021/08/19 04:27:15;;;;;;;3.95;1.60;;;;;;;;;;5114770;28;20047;-70
2021/08/19 04:30:00;;;;;;;;;;;;;;;;;;5115314;28;20495;-71
2021/08/19 04:32:45;;;;;;;4.90;1.48;;;;;;;;;;5102032;28;19915;-69
2021/08/19 04:35:31;;;;;;;3.22;1.45;;;;;;;;;;5114684;28;20414;-69
2021/08/19 04:38:16;;;;;;;4.22;1.10;;;;;;;;;;5114930;28;20039;-70
2021/08/19 04:41:00;;;;;;;3.50;1.50;;;;;;;;;;5099190;28;20035;-69
2021/08/19 04:43:44;;;;;;;3.38;1.40;;;;;;;;;;5099193;28;20487;-69
2021/08/19 04:46:30;;;;;;;3.35;1.50;;;;;;;;;;5119186;27;20035;-70
2021/08/19 04:49:14;;;;;;;1.48;1.00;;;;;;;;;;5135103;27;20039;-69
2021/08/19 04:51:58;;;;;;;2.50;1.52;;;;;;;;;;5124283;27;20035;-69
2021/08/19 04:54:43;;;;;;;8.88;2.03;;;;;;;;;;5119343;27;20483;-68
2021/08/19 04:57:27;;;;;;;4.65;1.40;;;;;;;;;;5135042;27;20027;-69
2021/08/19 05:00:11;;;;;;;4.18;1.33;;;;;;;;;;5134798;27;20039;-71
2021/08/19 05:02:56;;;;;;;4.75;1.52;;;;;;;;;;5134157;27;20487;-71
2021/08/19 05:05:40;;;;;;;8.45;2.22;;;;;;;;;;5134769;27;20027;-71
2021/08/19 05:08:24;;;;;;;11.38;1.70;;;;;;;;;;5125868;27;20035;-71
2021/08/19 05:11:08;;;;;;;12.52;2.42;;;;;;;;;;5134659;27;20032;-71
2021/08/19 05:13:53;;;;;;;5.82;1.70;;;;;;;;;;5134463;27;20046;-68
2021/08/19 05:16:37;;;;;;;7.97;1.88;;;;;;;;;;5134517;27;20039;-69
2021/08/19 05:19:21;;;;;;;13.10;1.98;;;;;;;;;;5134460;27;20035;-70
2021/08/19 05:22:05;;;;;;;15.68;1.83;;;;;;;;;;5134334;27;20035;-70
2021/08/19 05:24:51;;;;;;;11.60;1.73;;;;;;;;;;5134229;27;20425;-72
2021/08/19 05:27:36;;;;;;;26.65;3.50;;;;;;;;;;5118572;27;20047;-69
2021/08/19 05:30:20;;;;;;;7.78;3.08;;;;;;;;;;5123844;27;20028;-70
2021/08/19 05:33:04;;;;;;;4.18;2.03;;;;;;;;;;5113390;28;20495;-69
2021/08/19 05:35:51;;;;;;;3.67;1.88;;;;;;;;;;5125524;27;20534;-69
2021/08/19 05:38:36;;;;;;;3.60;2.00;;;;;;;;;;5098574;28;20036;-69
2021/08/19 05:41:20;;;;;;;5.13;1.40;;;;;;;;;;5123841;27;20035;-69
2021/08/19 05:44:05;;;;;;;6.25;1.50;;;;;;;;;;5133986;27;20035;-69
2021/08/19 05:46:50;;;;;;;18.73;2.28;;;;;;;;;;5114189;27;20040;-69
2021/08/19 05:49:35;;;;;;;5.30;1.70;;;;;;;;;;5113190;28;20406;-70
2021/08/19 05:52:20;;;;;;;2.88;1.33;;;;;;;;;;5106770;27;20039;-70
2021/08/19 05:55:04;;;;;;;3.75;1.55;;;;;;;;;;5133503;27;20039;-69
2021/08/19 05:57:51;;;;;;;;;;;;;;;;;;5123380;27;20035;-69
2021/08/19 06:00:35;;;;;;;3.47;1.48;;;;;;;;;;5113887;27;19942;-69
2021/08/19 06:03:20;;;;;;;5.20;1.95;;;;;;;;;;5128023;27;20035;-69
2021/08/19 06:06:04;;;;;;;4.90;1.90;;;;;;;;;;5112360;27;20475;-69
2021/08/19 06:08:49;;;;;;;4.20;1.90;;;;;;;;;;5121766;27;20367;-69
2021/08/19 06:11:33;;;;;;;8.10;2.22;;;;;;;;;;5131775;27;20035;-68
2021/08/19 06:14:18;;;;;;;7.78;2.42;;;;;;;;;;5117187;27;20039;-69
2021/08/19 06:17:02;;;;;;;10.38;2.45;;;;;;;;;;5133216;27;20372;-69
2021/08/19 06:19:46;;;;;;;21.90;2.58;;;;;;;;;;5111015;27;20042;-69
2021/08/19 06:22:32;;;;;;;11.15;2.28;;;;;;;;;;5116508;27;20040;-69
2021/08/19 06:25:16;;;;;;;7.97;2.70;;;;;;;;;;5117557;27;20054;-69
2021/08/19 06:28:00;;;;;;;18.23;2.92;;;;;;;;;;5122854;27;20047;-69
2021/08/19 06:30:45;;;;;;;58.58;6.60;;;;;;;;;;5128828;27;20046;-69
2021/08/19 06:33:29;;;;;;;20.10;2.60;;;;;;;;;;5124242;27;20532;-70
2021/08/19 06:36:14;;;;;;;8.10;2.28;;;;;;;;;;5112353;28;20023;-69
2021/08/19 06:38:58;;;;;;;6.57;1.40;;;;;;;;;;5112319;28;20032;-70
2021/08/19 06:41:43;;;;;;;6.80;1.77;;;;;;;;;;5121269;27;20487;-71
2021/08/19 06:44:27;;;;;;;3.40;1.80;;;;;;;;;;5131902;27;20027;-69
2021/08/19 06:47:12;;;;;;;9.82;2.13;;;;;;;;;;5132900;27;20039;-69
2021/08/19 06:49:56;;;;;;;10.85;3.33;;;;;;;;;;5115380;28;20040;-69
2021/08/19 06:52:43;;;;;;;11.57;2.15;;;;;;;;;;5132614;28;20031;-69
2021/08/19 06:55:28;;;;;;;5.72;1.95;;;;;;;;;;5120602;28;20047;-70
2021/08/19 06:58:13;;;;;;;6.05;1.30;;;;;;;;;;5119168;28;20032;-69
2021/08/19 07:00:57;;;;;;;;;;;;;;;;;;5128192;28;20043;-70
2021/08/19 07:03:41;;;;;;;9.05;1.52;;;;;;;;;;5127159;28;19922;-71
2021/08/19 07:06:26;;;;;;;7.47;1.92;;;;;;;;;;5129395;28;20043;-68
2021/08/19 07:09:10;;;;;;;9.15;1.88;;;;;;;;;;5115872;28;20475;-68
2021/08/19 07:11:54;;;;;;;9.23;1.70;;;;;;;;;;5120015;28;20035;-75
2021/08/19 07:14:38;;;;;;;7.05;1.85;;;;;;;;;;5131030;28;20039;-68
2021/08/19 07:17:23;;;;;;;2.53;1.23;;;;;;;;;;5127773;28;20035;-68
2021/08/19 07:20:08;;;;;;;5.80;2.15;;;;;;;;;;5121023;28;20035;-68
2021/08/19 07:22:52;;;;;;;7.75;2.33;;;;;;;;;;5128534;28;20494;-68
2021/08/19 07:25:36;;;;;;;;;;;;;;;;;;5131214;28;20039;-68
2021/08/19 07:28:21;;;;;;;7.10;2.50;;;;;;;;;;5132571;28;20108;-68
2021/08/19 07:31:05;;;;;;;10.00;2.65;;;;;;;;;;5119513;28;20043;-67
2021/08/19 07:33:49;;;;;;;9.43;1.90;;;;;;;;;;5131555;28;20398;-67
2021/08/19 07:36:34;;;;;;;4.20;1.85;;;;;;;;;;5132719;27;20031;-67
2021/08/19 07:39:19;;;;;;;9.93;1.70;;;;;;;;;;5130207;28;20380;-66
2021/08/19 07:42:04;;;;;;;3.88;1.10;;;;;;;;;;5121809;28;20027;-68
2021/08/19 07:44:48;;;;;;;11.68;2.28;;;;;;;;;;5132363;28;20035;-67
2021/08/19 07:47:34;;;;;;;;;;;;;;;;;;5136078;27;20395;-68
2021/08/19 07:50:18;;;;;;;5.60;1.40;;;;;;;;;;5132308;28;19914;-67
2021/08/19 07:53:03;;;;;;;3.78;1.58;;;;;;;;;;5128770;28;20032;-69
2021/08/19 07:55:48;;;;;;;6.85;1.80;;;;;;;;;;5114250;27;20031;-67
2021/08/19 07:58:32;;;;;;;;;;;;;;;;;;5124448;27;20043;-67
2021/08/19 08:01:16;;;;;;;3.10;1.35;;;;;;;;;;5119554;27;20385;-67
2021/08/19 08:04:00;;;;;;;;;;;;;;;;;;5116174;27;20027;-67
2021/08/19 08:06:45;;;;;;;9.10;1.67;;;;;;;;;;5124535;27;19915;-68
2021/08/19 08:09:29;;;;;;;;;;;;;;;;;;5133504;27;20047;-67
2021/08/19 08:12:13;;;;;;;4.67;1.10;;;;;;;;;;5127121;27;19914;-68
2021/08/19 08:14:58;;;;;;;9.15;2.00;;;;;;;;;;5105122;28;20035;-68
2021/08/19 08:17:42;;;;;;;4.40;1.30;;;;;;;;;;5114856;28;20035;-68
2021/08/19 08:20:26;;;;;;;17.63;2.22;;;;;;;;;;5114945;28;20039;-69
2021/08/19 08:23:11;;;;;;;24.23;2.88;;;;;;;;;;5115098;27;20040;-68
2021/08/19 08:25:55;;;;;;;14.77;2.53;;;;;;;;;;5130094;27;20027;-68
2021/08/19 08:28:40;;;;;;;4.40;1.75;;;;;;;;;;5114766;28;20070;-68
2021/08/19 08:31:24;;;;;;;3.05;1.75;;;;;;;;;;5131395;27;20417;-68
2021/08/19 08:34:09;;;;;;;8.38;1.33;;;;;;;;;;5135036;27;20372;-68
2021/08/19 08:36:53;;;;;;;233.82;9.98;;;;;;;;;;5108584;28;20494;-68
2021/08/19 08:39:38;;;;;;;35.17;3.88;;;;;;;;;;5114667;28;20526;-71
2021/08/19 08:42:23;;;;;;;10.45;2.15;;;;;;;;;;5107217;27;20391;-71
2021/08/19 08:45:08;;;;;;;2.28;1.30;;;;;;;;;;5133705;27;20039;-72
2021/08/19 08:47:54;;;;;;;3.30;1.27;;;;;;;;;;5119670;27;20035;-72
2021/08/19 08:50:39;;;;;;;3.10;1.58;;;;;;;;;;5133820;27;20039;-74
2021/08/19 08:53:23;;;;;;;5.18;1.00;;;;;;;;;;5134796;27;20039;-71
2021/08/19 08:56:07;;;;;;;6.53;2.63;;;;;;;;;;5134901;27;20031;-71
2021/08/19 08:58:52;;;;;;;2.80;1.42;;;;;;;;;;5134851;27;20031;-73
2021/08/19 09:01:36;;;;;;;9.43;1.63;;;;;;;;;;5133077;27;20503;-72
2021/08/19 09:04:21;;;;;;;6.25;1.75;;;;;;;;;;5112011;28;20031;-73
2021/08/19 09:07:05;;;;;;;5.13;1.50;;;;;;;;;;5113648;28;20043;-72
2021/08/19 09:09:52;;;;;;;2.67;1.17;;;;;;;;;;5113877;28;20483;-71
2021/08/19 09:12:39;;;;;;;2.90;1.35;;;;;;;;;;5101740;28;20035;-72
2021/08/19 09:15:25;;;;;;;4.55;1.38;;;;;;;;;;5113686;28;20039;-72
2021/08/19 09:18:10;;;;;;;4.03;1.55;;;;;;;;;;5113702;28;20040;-71
2021/08/19 09:20:55;;;;;;;3.40;1.60;;;;;;;;;;5113575;28;20372;-73
2021/08/19 09:23:40;;;;;;;10.70;1.52;;;;;;;;;;5098604;28;20031;-73
2021/08/19 09:26:28;;;;;;;3.72;1.60;;;;;;;;;;5098698;28;20043;-73
2021/08/19 09:29:15;;;;;;;3.30;1.65;;;;;;;;;;5105195;28;20036;-73
2021/08/19 09:32:09;;;;;;;8.35;2.20;;;;;;;;;;5104628;27;20023;-72
2021/08/19 09:34:53;;;;;;;2.50;1.27;;;;;;;;;;5117856;27;20039;-73
2021/08/19 09:37:37;;;;;;;3.10;1.70;;;;;;;;;;5113534;28;20594;-73
2021/08/19 09:40:22;;;;;;;3.72;1.40;;;;;;;;;;5100225;28;20027;-73
2021/08/19 09:43:06;;;;;;;2.17;1.25;;;;;;;;;;5126501;27;20047;-73
2021/08/19 09:45:51;;;;;;;5.38;1.75;;;;;;;;;;5132649;27;20027;-73
2021/08/19 09:48:36;;;;;;;6.25;1.10;;;;;;;;;;5133574;27;20039;-72
2021/08/19 09:51:25;;;;;;;2.28;1.08;;;;;;;;;;5129258;27;20040;-73
2021/08/19 09:54:09;;;;;;;2.13;1.63;;;;;;;;;;5128089;27;20494;-72
2021/08/19 09:56:54;;;;;;;3.53;1.05;;;;;;;;;;5131717;27;20035;-72
2021/08/19 09:59:40;;;;;;;2.13;1.15;;;;;;;;;;5132695;27;20039;-70
2021/08/19 10:02:29;;;;;;;2.75;1.13;;;;;;;;;;5127194;27;20035;-73
2021/08/19 10:05:14;;;;;;;5.72;1.20;;;;;;;;;;5131483;27;20031;-71
2021/08/19 10:07:59;;;;;;;7.15;1.00;;;;;;;;;;5128106;27;20028;-72
2021/08/19 10:10:44;;;;;;;2.45;1.40;;;;;;;;;;5127551;27;20487;-72
2021/08/19 10:13:29;;;;;;;1.98;1.20;;;;;;;;;;5128448;27;20486;-73
2021/08/19 10:16:16;;;;;;;1.40;0.85;;;;;;;;;;5130332;27;20027;-73
2021/08/19 10:19:02;;;;;;;2.08;1.27;;;;;;;;;;5128856;27;20027;-71
2021/08/19 10:21:52;;;;;;;3.70;1.20;;;;;;;;;;5126779;27;20039;-73
2021/08/19 10:24:37;;;;;;;1.75;1.10;;;;;;;;;;5127855;27;20376;-72
2021/08/19 10:27:23;;;;;;;6.70;1.63;;;;;;;;;;5125202;27;20035;-71
2021/08/19 10:30:18;;;;;;;2.90;1.30;;;;;;;;;;5115017;27;20039;-72
2021/08/19 10:33:03;;;;;;;2.70;1.38;;;;;;;;;;5130005;27;20031;-72
2021/08/19 10:35:48;;;;;;;2.85;1.23;;;;;;;;;;5126883;27;20027;-71
2021/08/19 10:38:34;;;;;;;4.05;1.10;;;;;;;;;;5122002;27;20388;-73
2021/08/19 10:41:30;;;;;;;2.28;1.02;;;;;;;;;;5123180;27;20495;-72
2021/08/19 10:44:15;;;;;;;1.52;0.82;;;;;;;;;;5106283;27;20028;-72
2021/08/19 10:47:01;;;;;;;2.70;0.95;;;;;;;;;;5122484;27;20039;-73
2021/08/19 10:49:45;;;;;;;1.27;0.82;;;;;;;;;;5131750;27;20031;-73
2021/08/19 10:52:30;;;;;;;8.43;1.00;;;;;;;;;;5121719;28;20043;-72
2021/08/19 10:55:15;;;;;;;6.20;1.50;;;;;;;;;;5130724;28;20031;-73
2021/08/19 10:57:59;;;;;;;2.28;0.98;;;;;;;;;;5114722;28;20031;-73
2021/08/19 11:00:44;;;;;;;3.08;1.23;;;;;;;;;;5132078;28;20031;-72
2021/08/19 11:03:37;;;;;;;3.55;1.52;;;;;;;;;;5125096;28;20043;-71
2021/08/19 11:06:23;;;;;;;7.63;1.25;;;;;;;;;;5131400;28;20027;-72
2021/08/19 11:09:15;;;;;;;2.53;1.27;;;;;;;;;;5130240;27;20486;-72
2021/08/19 11:12:03;;;;;;;3.28;1.30;;;;;;;;;;5114715;28;20027;-73
2021/08/19 11:14:57;;;;;;;0.85;0.63;;;;;;;;;;5127775;28;20035;-72
2021/08/19 11:17:51;;;;;;;2.22;1.08;;;;;;;;;;5114088;28;20027;-73
2021/08/19 11:20:36;;;;;;;4.35;1.10;;;;;;;;;;5131384;28;20035;-72
2021/08/19 11:23:38;;;;;;;2.35;1.67;;;;;;;;;;5111843;28;20027;-72
2021/08/19 11:26:22;;;;;;;3.75;1.05;;;;;;;;;;5131238;28;20039;-72
2021/08/19 11:29:07;;;;;;;1.52;1.08;;;;;;;;;;5126157;27;20039;-72
2021/08/19 11:31:51;;;;;;;2.42;1.08;;;;;;;;;;5129720;27;20035;-72
2021/08/19 11:34:36;;;;;;;5.22;1.40;;;;;;;;;;5110735;27;20039;-73
2021/08/19 11:37:28;;;;;;;2.45;1.10;;;;;;;;;;5121674;27;20047;-71
2021/08/19 11:40:12;;;;;;;2.03;1.13;;;;;;;;;;5125174;27;20027;-70
2021/08/19 11:43:17;;;;;;;3.10;1.05;;;;;;;;;;5129344;27;20460;-73
2021/08/19 11:46:13;;;;;;;1.95;1.17;;;;;;;;;;5132146;27;20043;-73
2021/08/19 11:49:01;;;;;;;1.38;0.95;;;;;;;;;;5134396;27;20035;-71
2021/08/19 11:51:46;;;;;;;3.50;1.00;;;;;;;;;;5128352;27;20491;-72
2021/08/19 11:54:38;;;;;;;1.67;0.93;;;;;;;;;;5123579;27;20039;-73
2021/08/19 11:57:23;;;;;;;1.67;1.00;;;;;;;;;;5130454;27;20478;-73
2021/08/19 12:00:12;;;;;;;2.40;0.95;;;;;;;;;;5134005;27;20031;-71
2021/08/19 12:03:00;;;;;;;3.72;1.05;;;;;;;;;;5129211;27;20027;-70
2021/08/19 12:05:44;;;;;;;1.88;1.17;;;;;;;;;;5126464;27;20039;-73
2021/08/19 12:08:29;;;;;;;2.45;1.00;;;;;;;;;;5130307;27;20035;-73
2021/08/19 12:11:14;;;;;;;1.98;1.00;;;;;;;;;;5126668;27;20039;-72
2021/08/19 12:14:00;;;;;;;5.55;1.15;;;;;;;;;;5131467;27;20036;-73
2021/08/19 12:16:48;;;;;;;5.40;1.55;;;;;;;;;;5108438;27;20031;-73
2021/08/19 12:19:33;;;;;;;2.55;1.00;;;;;;;;;;5125076;27;20036;-73
2021/08/19 12:22:23;;;;;;;2.88;1.50;;;;;;;;;;5126389;27;20039;-72
2021/08/19 12:25:19;;;;;;;6.57;1.42;;;;;;;;;;5113413;27;20027;-72
2021/08/19 12:28:05;;;;;;;3.30;1.15;;;;;;;;;;5133648;27;20035;-72
2021/08/19 12:31:00;;;;;;;7.50;1.80;;;;;;;;;;5131470;27;20027;-70
2021/08/19 12:33:44;;;;;;;3.40;1.08;;;;;;;;;;5128800;27;20039;-70
2021/08/19 12:36:30;;;;;;;2.05;1.20;;;;;;;;;;5130825;27;20039;-70
2021/08/19 12:39:26;;;;;;;3.60;2.13;;;;;;;;;;5120847;27;20023;-71
2021/08/19 12:42:10;;;;;;;4.20;1.65;;;;;;;;;;5125529;27;21285;-71
2021/08/19 12:45:02;;;;;;;14.95;1.65;;;;;;;;;;5117589;27;20364;-70
2021/08/19 12:47:58;;;;;;;2.58;1.20;;;;;;;;;;5111478;27;20031;-69
2021/08/19 12:50:43;;;;;;;2.03;1.02;;;;;;;;;;5132690;27;20039;-68
2021/08/19 12:53:27;;;;;;;9.20;1.80;;;;;;;;;;5128608;27;20031;-70
2021/08/19 12:56:21;;;;;;;7.47;1.50;;;;;;;;;;5117598;27;20035;-69
2021/08/19 12:59:05;;;;;;;18.80;5.40;;;;;;;;;;5131035;27;20516;-68
2021/08/19 13:01:49;;;;;;;12.75;3.25;;;;;;;;;;5133658;27;20497;-67
2021/08/19 13:04:34;;;;;;;13.57;4.68;;;;;;;;;;5131415;27;20645;-70
2021/08/19 13:07:18;;;;;;;13.55;4.13;;;;;;;;;;5132033;27;20050;-70
2021/08/19 13:10:03;;;;;;;1.92;1.13;;;;;;;;;;5129785;27;20039;-70
2021/08/19 13:12:48;;;;;;;6.47;2.20;;;;;;;;;;5133826;27;20047;-69
2021/08/19 13:15:32;;;;;;;2.70;1.13;;;;;;;;;;5130440;27;20036;-70
2021/08/19 13:18:17;;;;;;;6.88;2.30;;;;;;;;;;5116206;27;20522;-70
2021/08/19 13:21:03;;;;;;;3.58;1.27;;;;;;;;;;5131124;27;20023;-69
2021/08/19 13:23:47;;;;;;;4.18;1.15;;;;;;;;;;5130989;27;20309;-71
2021/08/19 13:26:32;;;;;;;8.13;1.58;;;;;;;;;;5131754;27;20035;-68
2021/08/19 13:29:16;;;;;;;3.42;1.48;;;;;;;;;;5133069;27;20035;-70
2021/08/19 13:32:02;;;;;;;3.42;2.35;;;;;;;;;;5132099;27;20415;-70
2021/08/19 13:34:46;;;;;;;4.03;1.38;;;;;;;;;;5133486;27;20031;-70
2021/08/19 13:37:30;;;;;;;4.35;1.30;;;;;;;;;;5132623;27;20039;-70
2021/08/19 13:40:15;;;;;;;10.38;1.75;;;;;;;;;;5129327;27;20028;-69
2021/08/19 13:42:59;;;;;;;5.68;1.30;;;;;;;;;;5132553;27;20038;-69
2021/08/19 13:45:44;;;;;;;3.65;1.17;;;;;;;;;;5132985;27;20035;-69
2021/08/19 13:48:30;;;;;;;2.40;1.15;;;;;;;;;;5116793;27;20392;-69
2021/08/19 13:51:14;;;;;;;6.53;1.15;;;;;;;;;;5137623;27;20039;-70
2021/08/19 13:53:58;;;;;;;5.45;1.50;;;;;;;;;;5129340;27;20035;-69
2021/08/19 13:56:43;;;;;;;2.78;1.10;;;;;;;;;;5129860;27;20031;-70
2021/08/19 13:59:27;;;;;;;3.33;1.60;;;;;;;;;;5130618;27;20039;-69
2021/08/19 14:02:12;;;;;;;4.60;1.30;;;;;;;;;;5126965;27;20031;-70
2021/08/19 14:04:57;;;;;;;2.42;1.55;;;;;;;;;;5121263;27;20035;-70
2021/08/19 14:07:42;;;;;;;2.30;1.45;;;;;;;;;;5132647;27;20479;-69
2021/08/19 14:10:26;;;;;;;1.75;1.33;;;;;;;;;;5118211;27;20035;-69
2021/08/19 14:13:11;;;;;;;2.92;1.05;;;;;;;;;;5114254;27;20031;-69
2021/08/19 14:15:57;;;;;;;3.85;1.05;;;;;;;;;;5113643;27;20035;-70
2021/08/19 14:18:42;;;;;;;4.07;0.85;;;;;;;;;;5130897;27;20038;-70
2021/08/19 14:21:26;;;;;;;3.67;0.93;;;;;;;;;;5132143;27;20035;-72
2021/08/19 14:24:10;;;;;;;4.47;1.42;;;;;;;;;;5113148;27;20392;-72
2021/08/19 14:26:55;;;;;;;9.65;2.22;;;;;;;;;;5127205;27;20494;-72
2021/08/19 14:29:39;;;;;;;9.75;1.67;;;;;;;;;;5130792;27;20051;-72
2021/08/19 14:32:24;;;;;;;2.85;1.20;;;;;;;;;;5131278;27;20035;-71
2021/08/19 14:35:08;;;;;;;3.60;1.25;;;;;;;;;;5112361;27;20039;-71
2021/08/19 14:37:53;;;;;;;3.67;1.00;;;;;;;;;;5130730;27;20093;-72
2021/08/19 14:40:38;;;;;;;1.85;1.00;;;;;;;;;;5130538;27;20375;-72
2021/08/19 14:43:25;;;;;;;1.73;0.90;;;;;;;;;;5126045;27;20031;-72
2021/08/19 14:46:10;;;;;;;2.63;1.23;;;;;;;;;;5129924;27;20043;-72
2021/08/19 14:48:55;;;;;;;2.42;1.02;;;;;;;;;;5131027;27;20027;-72
2021/08/19 14:51:40;;;;;;;5.97;1.00;;;;;;;;;;5131178;27;20406;-72
2021/08/19 14:54:24;;;;;;;2.65;1.00;;;;;;;;;;5112265;28;20051;-71
2021/08/19 14:57:10;;;;;;;2.72;1.60;;;;;;;;;;5129845;28;20367;-72
2021/08/19 14:59:54;;;;;;;2.75;1.23;;;;;;;;;;5130708;28;20031;-72
2021/08/19 15:02:39;;;;;;;2.30;0.95;;;;;;;;;;5130920;27;20039;-72
2021/08/19 15:05:23;;;;;;;2.45;1.10;;;;;;;;;;5133644;27;20035;-71
2021/08/19 15:08:08;;;;;;;2.13;1.15;;;;;;;;;;5133889;27;20038;-71
2021/08/19 15:10:53;;;;;;;3.35;0.90;;;;;;;;;;5116881;27;20035;-72
2021/08/19 15:13:38;;;;;;;2.58;1.20;;;;;;;;;;5134248;27;20043;-70
2021/08/19 15:16:22;;;;;;;1.48;1.02;;;;;;;;;;5135768;27;20028;-70
2021/08/19 15:19:07;;;;;;;2.83;1.27;;;;;;;;;;5133521;27;20035;-72
2021/08/19 15:21:52;;;;;;;1.92;1.15;;;;;;;;;;5133252;27;20027;-70
2021/08/19 15:24:38;;;;;;;5.80;1.00;;;;;;;;;;5123459;27;20031;-70
2021/08/19 15:27:22;;;;;;;5.78;2.17;;;;;;;;;;5135277;27;20039;-72
2021/08/19 15:30:07;;;;;;;5.63;1.48;;;;;;;;;;5117776;27;20027;-69
2021/08/19 15:32:55;;;;;;;7.53;1.27;;;;;;;;;;5116052;27;20375;-71
2021/08/19 15:35:39;;;;;;;2.17;1.33;;;;;;;;;;5134757;27;20047;-72
2021/08/19 15:38:24;;;;;;;4.55;1.20;;;;;;;;;;5135121;27;20035;-70
2021/08/19 15:41:17;;;;;;;7.80;1.75;;;;;;;;;;5132926;27;20039;-71
2021/08/19 15:44:02;;;;;;;6.47;1.33;;;;;;;;;;5116408;27;20380;-72
2021/08/19 15:46:48;;;;;;;2.33;0.93;;;;;;;;;;5133039;27;20038;-71
2021/08/19 15:49:39;;;;;;;5.88;1.02;;;;;;;;;;5133627;27;20031;-71
2021/08/19 15:52:24;;;;;;;2.55;1.08;;;;;;;;;;5119320;27;20039;-70
2021/08/19 15:55:09;;;;;;;4.40;1.60;;;;;;;;;;5132166;27;20031;-71
2021/08/19 15:57:54;;;;;;;4.50;1.00;;;;;;;;;;5133645;27;20031;-71
2021/08/19 16:00:38;;;;;;;2.45;1.10;;;;;;;;;;5118402;27;20035;-71
2021/08/19 16:03:23;;;;;;;7.75;2.20;;;;;;;;;;5118332;27;20039;-71
2021/08/19 16:06:08;;;;;;;3.20;1.48;;;;;;;;;;5135287;27;20039;-71
2021/08/19 16:08:54;;;;;;;1.92;1.08;;;;;;;;;;5135367;27;20478;-71
2021/08/19 16:11:38;;;;;;;2.85;1.27;;;;;;;;;;5104408;27;20035;-71
2021/08/19 16:14:23;;;;;;;;;;;;;;;;;;5122272;27;20039;-69
2021/08/19 16:17:07;;;;;;;1.67;0.93;;;;;;;;;;5124813;27;19922;-71
2021/08/19 16:19:51;;;;;;;1.27;0.70;;;;;;;;;;5103369;27;20032;-71
2021/08/19 16:22:36;;;;;;;3.53;1.33;;;;;;;;;;5126930;27;20035;-71
2021/08/19 16:25:23;;;;;;;2.05;0.93;;;;;;;;;;5120077;27;20043;-71
2021/08/19 16:28:07;;;;;;;4.45;1.58;;;;;;;;;;5131288;27;20031;-71
2021/08/19 16:30:51;;;;;;;3.30;1.27;;;;;;;;;;5132551;27;20031;-71
2021/08/19 16:33:36;;;;;;;2.38;1.02;;;;;;;;;;5132124;27;20039;-71